createdAt,value
2019-04-30T00:02:15.957Z,92.30
2019-04-30T00:04:48.642Z,93.10
2019-04-30T00:07:19.689Z,92.60
2019-04-30T00:09:53.880Z,91.50
2019-04-30T00:12:21.536Z,91.50
2019-04-30T00:14:51.641Z,91.80
2019-04-30T00:17:23.237Z,91.60
2019-04-30T00:19:58.215Z,91.20
2019-04-30T00:22:33.368Z,91.20
2019-04-30T00:24:56.685Z,91.50
2019-04-30T00:27:30.200Z,91.50
2019-04-30T00:30:00.346Z,91.60
2019-04-30T00:32:30.261Z,92.00
2019-04-30T00:35:00.315Z,91.40
2019-04-30T00:37:30.418Z,91.00
2019-04-30T00:40:01.596Z,91.00
2019-04-30T00:42:31.646Z,91.10
2019-04-30T00:45:06.653Z,91.30
2019-04-30T00:47:35.074Z,91.30
2019-04-30T00:50:05.789Z,91.20
2019-04-30T00:52:37.378Z,92.10
2019-04-30T00:55:09.201Z,92.40
2019-04-30T00:57:43.750Z,92.70
2019-04-30T01:00:12.432Z,93.60
2019-04-30T01:03:10.324Z,93.40
2019-04-30T01:05:44.485Z,94.30
2019-04-30T01:08:12.134Z,95.20
2019-04-30T01:10:42.158Z,95.10
2019-04-30T01:13:12.185Z,95.50
2019-04-30T01:15:43.959Z,95.70
2019-04-30T01:18:13.908Z,95.90
2019-04-30T01:20:43.913Z,95.00
2019-04-30T01:23:15.548Z,95.10
2019-04-30T01:25:49.922Z,95.50
2019-04-30T01:28:23.191Z,95.60
2019-04-30T01:30:49.546Z,95.10
2019-04-30T01:33:19.725Z,94.60
2019-04-30T01:35:49.713Z,94.30
2019-04-30T01:38:19.704Z,94.90
2019-04-30T01:40:51.149Z,94.70
2019-04-30T01:43:30.584Z,93.60
2019-04-30T01:45:52.958Z,93.70
2019-04-30T01:48:23.021Z,92.90
2019-04-30T01:50:53.074Z,92.70
2019-04-30T01:53:23.120Z,92.70
2019-04-30T01:56:19.318Z,92.70
2019-04-30T01:58:55.976Z,93.00
2019-04-30T02:01:28.630Z,92.00
2019-04-30T02:03:59.190Z,92.00
2019-04-30T02:06:29.474Z,91.70
2019-04-30T02:08:59.670Z,91.70
2019-04-30T02:11:29.662Z,92.00
2019-04-30T02:13:59.733Z,91.70
2019-04-30T02:16:29.708Z,91.50
2019-04-30T02:18:59.794Z,91.90
2019-04-30T02:21:30.384Z,91.70
2019-04-30T02:24:01.522Z,92.00
2019-04-30T02:26:31.509Z,91.40
2019-04-30T02:29:01.522Z,92.20
2019-04-30T02:31:31.622Z,92.00
2019-04-30T02:34:14.386Z,91.30
2019-04-30T02:36:53.310Z,91.50
2019-04-30T02:39:24.293Z,91.80
2019-04-30T02:41:54.285Z,92.40
2019-04-30T02:44:24.329Z,92.20
2019-04-30T02:46:54.687Z,91.90
2019-04-30T02:49:24.771Z,91.90
2019-04-30T02:51:55.146Z,91.80
2019-04-30T02:54:29.659Z,92.50
2019-04-30T02:57:13.176Z,91.80
2019-04-30T03:00:01.245Z,92.00
2019-04-30T03:02:32.594Z,91.70
2019-04-30T03:05:02.679Z,91.70
2019-04-30T03:07:32.746Z,91.80
2019-04-30T03:10:02.829Z,91.30
2019-04-30T03:12:33.779Z,91.10
2019-04-30T03:15:04.419Z,91.10
2019-04-30T03:17:52.497Z,90.70
2019-04-30T03:20:41.445Z,90.90
2019-04-30T03:23:11.439Z,90.90
2019-04-30T03:25:41.455Z,90.90
2019-04-30T03:28:11.510Z,90.40
2019-04-30T03:30:42.822Z,90.50
2019-04-30T03:33:13.448Z,90.40
2019-04-30T03:35:47.623Z,90.80
2019-04-30T03:38:15.422Z,90.60
2019-04-30T03:40:45.421Z,89.80
2019-04-30T03:43:15.500Z,90.40
2019-04-30T03:45:45.497Z,90.70
2019-04-30T03:48:15.576Z,90.70
2019-04-30T03:50:53.781Z,90.30
2019-04-30T03:53:20.227Z,90.50
2019-04-30T03:55:50.715Z,90.90
2019-04-30T03:58:21.575Z,91.20
2019-04-30T04:01:03.572Z,90.20
2019-04-30T04:03:36.279Z,90.90
2019-04-30T04:06:29.249Z,91.00
2019-04-30T04:09:14.735Z,91.00
2019-04-30T04:11:46.079Z,90.10
2019-04-30T04:14:16.110Z,90.20
2019-04-30T04:16:46.116Z,90.20
2019-04-30T04:19:16.098Z,89.60
2019-04-30T04:21:46.190Z,88.20
2019-04-30T04:24:16.163Z,87.80
2019-04-30T04:26:46.185Z,88.10
2019-04-30T04:29:16.258Z,88.30
2019-04-30T04:31:46.257Z,87.40
2019-04-30T04:34:16.230Z,87.50
2019-04-30T04:36:46.288Z,87.90
2019-04-30T04:39:16.423Z,86.90
2019-04-30T04:41:46.500Z,86.30
2019-04-30T04:44:16.480Z,86.60
2019-04-30T04:46:46.474Z,86.70
2019-04-30T04:49:16.524Z,86.10
2019-04-30T04:51:49.180Z,85.90
2019-04-30T04:54:20.242Z,85.40
2019-04-30T04:56:53.357Z,85.60
2019-04-30T04:59:21.781Z,85.70
2019-04-30T05:01:51.850Z,84.90
2019-04-30T05:04:21.902Z,84.00
2019-04-30T05:06:51.989Z,84.20
2019-04-30T05:09:22.065Z,85.40
2019-04-30T05:11:52.080Z,85.40
2019-04-30T05:14:22.075Z,84.40
2019-04-30T05:16:52.077Z,83.90
2019-04-30T05:19:22.065Z,83.40
2019-04-30T05:21:52.077Z,85.00
2019-04-30T05:24:22.109Z,83.40
2019-04-30T05:26:52.636Z,80.90
2019-04-30T05:29:22.613Z,77.60
2019-04-30T05:31:52.617Z,72.40
2019-04-30T05:34:22.603Z,73.30
2019-04-30T05:36:52.605Z,71.50
2019-04-30T05:39:22.610Z,71.70
2019-04-30T05:41:52.664Z,72.80
2019-04-30T05:44:22.644Z,73.70
2019-04-30T05:46:52.646Z,72.90
2019-04-30T05:49:22.673Z,70.00
2019-04-30T05:51:55.714Z,71.30
2019-04-30T05:54:24.453Z,72.30
2019-04-30T05:56:54.535Z,75.50
2019-04-30T05:59:24.524Z,76.60
2019-04-30T06:01:54.687Z,78.70
2019-04-30T06:04:24.697Z,78.30
2019-04-30T06:06:54.715Z,75.80
2019-04-30T06:09:40.872Z,75.80
2019-04-30T06:12:32.868Z,76.70
2019-04-30T06:15:11.887Z,74.30
2019-04-30T06:17:42.549Z,76.50
2019-04-30T06:20:18.366Z,75.80
2019-04-30T06:22:44.381Z,75.10
2019-04-30T06:25:14.366Z,74.80
2019-04-30T06:27:44.380Z,73.90
2019-04-30T06:30:14.361Z,73.00
2019-04-30T06:32:44.352Z,72.80
2019-04-30T06:35:14.332Z,71.60
2019-04-30T06:37:44.334Z,70.10
2019-04-30T06:40:15.873Z,69.40
2019-04-30T06:42:45.874Z,67.20
2019-04-30T06:45:16.197Z,60.30
2019-04-30T06:47:46.208Z,61.20
2019-04-30T06:50:16.218Z,56.30
2019-04-30T06:52:56.238Z,56.30
2019-04-30T06:55:19.299Z,60.60
2019-04-30T06:57:49.794Z,61.50
2019-04-30T07:00:32.758Z,58.70
2019-04-30T07:02:54.605Z,59.80
2019-04-30T07:05:24.585Z,57.00
2019-04-30T07:08:12.257Z,56.50
2019-04-30T07:10:53.177Z,55.70
2019-04-30T07:13:18.666Z,56.30
2019-04-30T07:15:48.988Z,53.40
2019-04-30T07:18:20.132Z,55.40
2019-04-30T07:20:51.173Z,53.10
2019-04-30T07:23:21.192Z,52.40
2019-04-30T07:25:51.785Z,52.80
2019-04-30T07:28:21.983Z,53.50
2019-04-30T07:31:07.535Z,51.80
2019-04-30T07:33:23.721Z,49.80
2019-04-30T07:35:54.792Z,46.50
2019-04-30T07:38:24.765Z,47.80
2019-04-30T07:40:54.751Z,49.00
2019-04-30T07:43:24.717Z,47.60
2019-04-30T07:45:54.724Z,44.70
2019-04-30T07:48:26.590Z,43.30
2019-04-30T07:50:55.434Z,46.60
2019-04-30T07:53:25.328Z,44.10
2019-04-30T07:55:54.378Z,44.10
2019-04-30T07:58:23.354Z,39.90
2019-04-30T08:00:56.330Z,40.40
2019-04-30T08:03:37.257Z,40.40
2019-04-30T08:06:10.074Z,42.00
2019-04-30T08:08:40.677Z,38.00
2019-04-30T08:11:09.275Z,41.70
2019-04-30T08:13:40.520Z,39.60
2019-04-30T08:16:11.092Z,41.10
2019-04-30T08:18:41.154Z,38.70
2019-04-30T08:21:11.201Z,38.90
2019-04-30T08:23:41.301Z,37.50
2019-04-30T08:26:11.314Z,38.00
2019-04-30T08:28:41.470Z,37.40
2019-04-30T08:31:11.472Z,37.20
2019-04-30T08:33:41.705Z,36.00
2019-04-30T08:36:11.717Z,37.80
2019-04-30T08:38:42.147Z,37.40
2019-04-30T08:41:12.161Z,37.50
2019-04-30T08:43:42.214Z,37.00
2019-04-30T08:46:12.273Z,38.80
2019-04-30T08:48:50.427Z,36.40
2019-04-30T08:51:14.439Z,37.90
2019-04-30T08:53:45.156Z,39.20
2019-04-30T08:56:16.716Z,37.40
2019-04-30T08:58:48.952Z,37.90
2019-04-30T09:01:19.481Z,38.40
2019-04-30T09:03:51.333Z,37.50
2019-04-30T09:06:26.771Z,34.20
2019-04-30T09:09:12.207Z,33.20
2019-04-30T09:11:51.629Z,35.60
2019-04-30T09:14:15.117Z,36.80
2019-04-30T09:16:45.113Z,40.20
2019-04-30T09:19:16.917Z,36.80
2019-04-30T09:21:48.763Z,37.70
2019-04-30T09:24:19.150Z,38.20
2019-04-30T09:26:49.426Z,36.70
2019-04-30T09:29:19.432Z,36.00
2019-04-30T09:31:49.451Z,36.20
2019-04-30T09:34:21.118Z,34.20
2019-04-30T09:36:51.144Z,33.50
2019-04-30T09:39:23.172Z,32.00
2019-04-30T09:41:52.769Z,30.90
2019-04-30T09:44:22.778Z,34.30
2019-04-30T09:46:53.823Z,32.90
2019-04-30T09:49:23.800Z,34.60
2019-04-30T09:51:53.773Z,34.40
2019-04-30T09:54:24.023Z,33.30
2019-04-30T09:56:54.318Z,32.70
2019-04-30T09:59:24.409Z,32.50
2019-04-30T10:01:54.378Z,32.80
2019-04-30T10:04:24.777Z,32.80
2019-04-30T10:06:55.124Z,34.60
2019-04-30T10:09:25.112Z,33.90
2019-04-30T10:12:09.728Z,34.60
2019-04-30T10:14:41.010Z,33.10
2019-04-30T10:17:27.057Z,29.90
2019-04-30T10:19:57.032Z,33.20
2019-04-30T10:22:26.994Z,30.20
2019-04-30T10:24:56.985Z,29.20
2019-04-30T10:27:29.199Z,30.80
2019-04-30T10:29:59.751Z,30.20
2019-04-30T10:32:30.114Z,29.30
2019-04-30T10:35:01.237Z,29.30
2019-04-30T10:37:31.192Z,31.40
2019-04-30T10:40:01.264Z,31.60
2019-04-30T10:42:34.676Z,31.20
2019-04-30T10:45:10.630Z,29.60
2019-04-30T10:47:40.597Z,30.70
2019-04-30T10:50:10.591Z,31.50
2019-04-30T10:52:40.549Z,29.10
2019-04-30T10:55:11.196Z,27.90
2019-04-30T10:57:41.238Z,31.70
2019-04-30T11:00:14.649Z,34.30
2019-04-30T11:02:44.617Z,31.50
2019-04-30T11:05:14.598Z,30.80
2019-04-30T11:07:44.553Z,31.80
2019-04-30T11:10:14.641Z,32.30
2019-04-30T11:12:44.669Z,31.80
2019-04-30T11:15:14.707Z,31.70
2019-04-30T11:17:44.917Z,31.30
2019-04-30T11:20:15.270Z,31.50
2019-04-30T11:22:45.932Z,32.80
2019-04-30T11:25:16.025Z,32.40
2019-04-30T11:27:46.573Z,33.00
2019-04-30T11:30:21.278Z,33.90
2019-04-30T11:32:48.879Z,31.20
2019-04-30T11:35:20.727Z,31.70
2019-04-30T11:37:51.041Z,31.60
2019-04-30T11:40:34.301Z,32.30
2019-04-30T11:42:59.282Z,30.80
2019-04-30T11:46:06.004Z,30.80
2019-04-30T11:48:35.970Z,30.90
2019-04-30T11:51:06.137Z,28.30
2019-04-30T11:53:36.106Z,27.70
2019-04-30T11:56:06.171Z,28.40
2019-04-30T11:58:36.135Z,29.40
2019-04-30T12:01:08.985Z,29.70
2019-04-30T12:03:39.405Z,30.10
2019-04-30T12:06:09.557Z,29.80
2019-04-30T12:08:56.273Z,29.10
2019-04-30T12:11:31.601Z,29.50
2019-04-30T12:14:01.561Z,30.90
2019-04-30T12:16:33.690Z,30.60
2019-04-30T12:19:03.341Z,30.80
2019-04-30T12:21:34.439Z,32.90
2019-04-30T12:24:04.520Z,29.80
2019-04-30T12:26:34.508Z,32.00
2019-04-30T12:29:04.482Z,31.70
2019-04-30T12:31:34.481Z,31.80
2019-04-30T12:34:04.468Z,31.90
2019-04-30T12:36:34.469Z,32.70
2019-04-30T12:39:05.916Z,32.10
2019-04-30T12:41:38.985Z,32.80
2019-04-30T12:44:09.369Z,32.40
2019-04-30T12:46:39.425Z,32.10
2019-04-30T12:49:13.304Z,31.50
2019-04-30T12:52:08.766Z,31.00
2019-04-30T12:54:55.931Z,32.80
2019-04-30T12:57:30.765Z,33.10
2019-04-30T13:00:00.726Z,32.00
2019-04-30T13:02:30.718Z,31.80
2019-04-30T13:05:00.687Z,32.40
2019-04-30T13:07:31.442Z,33.00
2019-04-30T13:10:03.687Z,32.60
2019-04-30T13:12:34.750Z,33.20
2019-04-30T13:15:06.357Z,33.10
2019-04-30T13:17:36.365Z,32.60
2019-04-30T13:20:18.127Z,33.20
2019-04-30T13:22:38.917Z,31.50
2019-04-30T13:25:09.977Z,31.40
2019-04-30T13:27:44.349Z,30.60
2019-04-30T13:30:18.620Z,30.40
2019-04-30T13:32:55.222Z,30.70
2019-04-30T13:35:25.176Z,33.00
2019-04-30T13:38:00.318Z,32.50
2019-04-30T13:40:49.331Z,33.10
2019-04-30T13:43:20.998Z,31.50
2019-04-30T13:45:51.910Z,31.50
2019-04-30T13:48:22.028Z,32.10
2019-04-30T13:50:51.994Z,31.90
2019-04-30T13:53:22.086Z,32.60
2019-04-30T13:55:52.044Z,32.90
2019-04-30T13:58:22.032Z,32.90
2019-04-30T14:00:53.477Z,33.60
2019-04-30T14:03:41.713Z,33.80
2019-04-30T14:06:13.260Z,32.90
2019-04-30T14:08:48.840Z,33.50
2019-04-30T14:11:19.057Z,34.40
2019-04-30T14:13:49.320Z,33.00
2019-04-30T14:16:19.505Z,34.00
2019-04-30T14:18:49.496Z,35.00
2019-04-30T14:21:32.297Z,35.90
2019-04-30T14:23:51.168Z,35.20
2019-04-30T14:26:21.204Z,35.30
2019-04-30T14:28:51.301Z,36.70
2019-04-30T14:31:21.274Z,36.40
2019-04-30T14:33:51.262Z,36.90
2019-04-30T14:36:21.230Z,37.20
2019-04-30T14:38:51.289Z,37.20
2019-04-30T14:41:22.118Z,37.30
2019-04-30T14:43:58.077Z,35.90
2019-04-30T14:46:46.077Z,37.30
2019-04-30T14:49:34.130Z,37.30
2019-04-30T14:52:04.814Z,37.20
2019-04-30T14:54:42.769Z,37.60
2019-04-30T14:57:30.424Z,38.00
2019-04-30T15:00:15.362Z,37.60
2019-04-30T15:02:50.254Z,36.80
2019-04-30T15:05:20.553Z,36.60
2019-04-30T15:07:50.505Z,37.00
2019-04-30T15:10:20.489Z,37.60
2019-04-30T15:12:50.605Z,37.20
2019-04-30T15:15:20.624Z,36.60
2019-04-30T15:17:50.765Z,36.90
2019-04-30T15:20:20.754Z,36.80
2019-04-30T15:23:00.547Z,37.80
2019-04-30T15:25:34.138Z,37.80
2019-04-30T15:28:02.203Z,38.00
2019-04-30T15:30:32.449Z,36.90
2019-04-30T15:33:09.728Z,37.60
2019-04-30T15:35:39.713Z,36.60
2019-04-30T15:38:09.679Z,37.90
2019-04-30T15:40:39.769Z,36.80
2019-04-30T15:43:09.742Z,36.00
2019-04-30T15:45:39.728Z,36.20
2019-04-30T15:48:09.709Z,36.60
2019-04-30T15:50:39.699Z,36.30
2019-04-30T15:53:09.681Z,36.30
2019-04-30T15:55:39.668Z,39.20
2019-04-30T15:58:16.349Z,38.50
2019-04-30T16:00:46.333Z,38.60
2019-04-30T16:03:21.758Z,38.50
2019-04-30T16:05:53.050Z,38.30
2019-04-30T16:08:33.953Z,38.10
2019-04-30T16:11:21.763Z,38.50
2019-04-30T16:14:20.243Z,38.40
2019-04-30T16:17:04.144Z,38.80
2019-04-30T16:19:34.192Z,38.80
2019-04-30T16:22:04.484Z,39.30
2019-04-30T16:24:34.533Z,39.70
2019-04-30T16:27:09.146Z,40.20
2019-04-30T16:29:40.764Z,39.80
2019-04-30T16:32:10.847Z,39.90
2019-04-30T16:34:40.806Z,39.40
2019-04-30T16:37:12.380Z,40.20
2019-04-30T16:39:42.344Z,40.50
2019-04-30T16:42:12.344Z,39.60
2019-04-30T16:44:42.487Z,39.50
2019-04-30T16:47:14.444Z,40.50
2019-04-30T16:49:44.176Z,40.60
2019-04-30T16:52:14.209Z,41.10
2019-04-30T16:54:44.186Z,40.40
2019-04-30T16:57:14.163Z,40.90
2019-04-30T16:59:44.159Z,41.50
2019-04-30T17:02:14.538Z,42.00
2019-04-30T17:04:50.238Z,41.90
2019-04-30T17:07:28.929Z,42.20
2019-04-30T17:10:13.553Z,42.40
2019-04-30T17:12:59.310Z,43.10
2019-04-30T17:15:31.388Z,42.50
2019-04-30T17:18:01.401Z,42.60
2019-04-30T17:20:31.462Z,43.10
2019-04-30T17:23:01.482Z,42.60
2019-04-30T17:25:31.471Z,42.90
2019-04-30T17:28:01.690Z,43.90
2019-04-30T17:30:32.954Z,44.60
2019-04-30T17:33:02.998Z,45.20
2019-04-30T17:35:33.418Z,44.90
2019-04-30T17:38:03.456Z,44.70
2019-04-30T17:40:33.513Z,45.10
2019-04-30T17:43:03.481Z,44.90
2019-04-30T17:45:33.552Z,45.20
2019-04-30T17:48:03.624Z,45.20
2019-04-30T17:50:33.665Z,45.60
2019-04-30T17:53:03.712Z,44.70
2019-04-30T17:55:33.737Z,44.80
2019-04-30T17:58:03.842Z,45.00
2019-04-30T18:00:38.818Z,45.20
2019-04-30T18:03:10.959Z,45.20
2019-04-30T18:05:40.935Z,45.30
2019-04-30T18:08:11.085Z,45.90
2019-04-30T18:10:41.562Z,45.90
2019-04-30T18:13:11.525Z,46.10
2019-04-30T18:15:41.589Z,46.60
2019-04-30T18:18:29.211Z,46.90
2019-04-30T18:21:33.611Z,47.10
2019-04-30T18:24:29.459Z,47.40
2019-04-30T18:27:16.827Z,47.90
2019-04-30T18:29:46.797Z,48.50
2019-04-30T18:32:16.791Z,48.80
2019-04-30T18:34:46.758Z,48.90
2019-04-30T18:37:18.820Z,49.10
2019-04-30T18:39:48.569Z,49.50
2019-04-30T18:42:19.338Z,50.20
2019-04-30T18:44:49.553Z,50.80
2019-04-30T18:47:19.649Z,52.30
2019-04-30T18:49:49.683Z,52.20
2019-04-30T18:52:19.731Z,53.20
2019-04-30T18:54:49.791Z,53.90
2019-04-30T18:57:20.225Z,54.70
2019-04-30T18:59:51.422Z,54.20
2019-04-30T19:02:21.502Z,55.70
2019-04-30T19:04:51.482Z,55.40
2019-04-30T19:07:29.846Z,55.90
2019-04-30T19:10:13.676Z,56.40
2019-04-30T19:13:05.845Z,56.90
2019-04-30T19:16:18.519Z,56.80
2019-04-30T19:18:39.865Z,57.10
2019-04-30T19:21:10.017Z,57.40
2019-04-30T19:23:40.470Z,57.70
2019-04-30T19:26:10.439Z,57.70
2019-04-30T19:28:45.712Z,57.50
2019-04-30T19:31:15.729Z,57.60
2019-04-30T19:33:45.764Z,57.50
2019-04-30T19:36:18.479Z,59.00
2019-04-30T19:38:48.498Z,59.70
2019-04-30T19:41:19.175Z,60.10
2019-04-30T19:43:50.094Z,60.00
2019-04-30T19:46:20.417Z,60.70
2019-04-30T19:48:50.691Z,61.80
2019-04-30T19:51:20.858Z,61.60
2019-04-30T19:53:52.356Z,63.10
2019-04-30T19:56:22.481Z,64.50
2019-04-30T19:59:02.110Z,63.80
2019-04-30T20:01:24.236Z,65.40
2019-04-30T20:03:54.209Z,65.40
2019-04-30T20:06:24.745Z,65.20
2019-04-30T20:08:55.431Z,65.90
2019-04-30T20:11:26.028Z,65.20
2019-04-30T20:13:56.329Z,65.70
2019-04-30T20:16:26.764Z,65.10
2019-04-30T20:18:59.098Z,65.00
2019-04-30T20:21:45.332Z,65.00
2019-04-30T20:24:00.680Z,65.30
2019-04-30T20:26:30.645Z,65.10
2019-04-30T20:29:00.921Z,65.10
2019-04-30T20:31:30.920Z,65.20
2019-04-30T20:34:01.519Z,65.30
2019-04-30T20:36:32.263Z,65.20
2019-04-30T20:39:19.785Z,64.60
2019-04-30T20:41:53.214Z,64.60
2019-04-30T20:44:24.308Z,64.60
2019-04-30T20:46:54.389Z,64.70
2019-04-30T20:49:24.716Z,64.60
2019-04-30T20:51:56.130Z,65.70
2019-04-30T20:54:29.058Z,66.80
2019-04-30T20:56:59.472Z,66.30
2019-04-30T20:59:29.513Z,67.00
2019-04-30T21:01:59.779Z,67.70
2019-04-30T21:04:30.523Z,69.10
2019-04-30T21:07:00.894Z,70.10
2019-04-30T21:09:31.129Z,70.90
2019-04-30T21:12:01.812Z,71.10
2019-04-30T21:14:32.256Z,71.40
2019-04-30T21:17:02.951Z,72.30
2019-04-30T21:19:34.089Z,72.10
2019-04-30T21:22:04.636Z,72.30
2019-04-30T21:24:35.927Z,72.30
2019-04-30T21:27:06.496Z,71.80
2019-04-30T21:29:36.666Z,72.10
2019-04-30T21:32:19.045Z,72.60
2019-04-30T21:35:14.663Z,73.10
2019-04-30T21:37:44.949Z,72.70
2019-04-30T21:40:15.497Z,72.80
2019-04-30T21:42:45.557Z,72.60
2019-04-30T21:45:15.565Z,73.80
2019-04-30T21:47:55.823Z,74.60
2019-04-30T21:50:19.544Z,74.90
2019-04-30T21:52:49.603Z,75.20
2019-04-30T21:55:20.122Z,75.70
2019-04-30T21:57:50.125Z,75.70
2019-04-30T22:00:35.378Z,77.00
2019-04-30T22:03:09.731Z,77.20
2019-04-30T22:05:39.657Z,77.90
2019-04-30T22:08:09.752Z,77.60
2019-04-30T22:10:39.984Z,79.20
2019-04-30T22:13:10.065Z,79.60
2019-04-30T22:15:40.029Z,80.00
2019-04-30T22:18:10.189Z,80.30
2019-04-30T22:20:40.393Z,79.50
2019-04-30T22:23:10.445Z,79.40
2019-04-30T22:25:40.585Z,78.90
2019-04-30T22:28:10.650Z,78.50
2019-04-30T22:30:40.629Z,78.30
2019-04-30T22:33:10.893Z,78.50
2019-04-30T22:35:47.586Z,78.20
2019-04-30T22:38:21.000Z,78.10
2019-04-30T22:40:50.961Z,78.00
2019-04-30T22:43:20.985Z,77.80
2019-04-30T22:45:59.582Z,78.40
2019-04-30T22:48:29.797Z,78.20
2019-04-30T22:50:59.801Z,78.30
2019-04-30T22:53:29.861Z,78.70
2019-04-30T22:55:59.849Z,79.50
2019-04-30T22:58:30.062Z,80.00
2019-04-30T23:01:14.425Z,80.90
2019-04-30T23:03:44.833Z,81.90
2019-04-30T23:06:15.744Z,82.20
2019-04-30T23:08:45.907Z,83.20
2019-04-30T23:11:16.037Z,83.20
2019-04-30T23:13:46.160Z,83.00
2019-04-30T23:16:16.402Z,82.10
2019-04-30T23:18:46.425Z,82.50
2019-04-30T23:21:16.514Z,83.10
2019-04-30T23:23:46.765Z,82.80
2019-04-30T23:26:18.171Z,82.60
2019-04-30T23:28:48.350Z,82.50
2019-04-30T23:31:18.426Z,83.10
2019-04-30T23:33:48.445Z,83.60
2019-04-30T23:36:18.444Z,82.70
2019-04-30T23:38:48.561Z,83.50
2019-04-30T23:41:19.729Z,83.50
2019-04-30T23:43:49.841Z,83.20
2019-04-30T23:46:19.939Z,83.20
2019-04-30T23:48:50.002Z,83.10
2019-04-30T23:51:20.075Z,83.60
2019-04-30T23:53:50.138Z,84.00
2019-04-30T23:56:20.178Z,83.80
2019-04-30T23:58:50.246Z,83.90
